Time;durP1;ratioP1;P1;durP2;ratioP2;P2;SDS_P1;SDS_P2;PMS_P1;PMS_P2;Temp;Humidity;BMP_temperature;BMP_pressure;BME280_temperature;BME280_humidity;BME280_pressure;Samples;Min_cycle;Max_cycle;Signal;HPM_P1;HPM_P2
2021/10/29 00:01:57;;;;;;;;;;;23.30;46.10;;;;;;1573523;74;778;-61
2021/10/29 00:03:59;;;;;;;;;;;23.40;46.10;;;;;;1569499;74;751;-60
2021/10/29 00:06:00;;;;;;;;;;;23.30;46.10;;;;;;1568865;74;1161;-60
2021/10/29 00:08:03;;;;;;;;;;;23.20;46.00;;;;;;1569047;74;715;-59
2021/10/29 00:10:05;;;;;;;;;;;23.30;46.10;;;;;;1568774;74;676;-58
2021/10/29 00:12:07;;;;;;;;;;;23.30;46.00;;;;;;1569098;74;689;-60
2021/10/29 00:14:09;;;;;;;;;;;23.30;46.00;;;;;;1569175;74;716;-60
2021/10/29 00:16:11;;;;;;;;;;;23.20;45.90;;;;;;1568846;74;1129;-59
2021/10/29 00:18:13;;;;;;;;;;;23.30;46.00;;;;;;1568943;74;721;-58
2021/10/29 00:20:15;;;;;;;;;;;23.30;46.10;;;;;;1569020;74;1912;-58
2021/10/29 00:22:17;;;;;;;;;;;23.30;46.10;;;;;;1568236;74;598;-58
2021/10/29 00:24:19;;;;;;;;;;;23.20;46.00;;;;;;1569125;74;721;-57
2021/10/29 00:26:20;;;;;;;;;;;23.20;46.00;;;;;;1566398;74;1152;-57
2021/10/29 00:28:22;;;;;;;;;;;23.30;46.10;;;;;;1581591;74;690;-59
2021/10/29 00:30:24;;;;;;;;;;;23.20;46.00;;;;;;1568793;74;813;-58
2021/10/29 00:32:27;;;;;;;;;;;23.20;46.00;;;;;;1585101;74;760;-59
2021/10/29 00:34:29;;;;;;;;;;;23.20;46.00;;;;;;1580647;74;960;-58
2021/10/29 00:36:31;;;;;;;;;;;23.20;45.90;;;;;;1572657;73;1157;-58
2021/10/29 00:38:33;;;;;;;;;;;23.20;45.90;;;;;;1568888;74;720;-58
2021/10/29 00:40:38;;;;;;;;;;;23.20;45.90;;;;;;1564242;74;1938;-59
2021/10/29 00:42:39;;;;;;;;;;;23.20;45.90;;;;;;1595310;73;1629;-59
2021/10/29 00:44:41;;;;;;;;;;;23.20;45.90;;;;;;1570745;74;1138;-58
2021/10/29 00:46:42;;;;;;;;;;;23.20;45.80;;;;;;1571499;74;720;-58
2021/10/29 00:48:45;;;;;;;;;;;23.20;45.80;;;;;;1568948;74;668;-58
2021/10/29 00:50:47;;;;;;;;;;;23.20;45.80;;;;;;1568668;74;686;-58
2021/10/29 00:52:49;;;;;;;;;;;23.20;45.80;;;;;;1569212;74;669;-60
2021/10/29 00:54:50;;;;;;;;;;;23.20;45.90;;;;;;1568911;74;1182;-57
2021/10/29 00:56:52;;;;;;;;;;;23.20;45.90;;;;;;1580112;74;761;-58
2021/10/29 00:58:55;;;;;;;;;;;23.20;46.00;;;;;;1584591;74;765;-58
2021/10/29 01:00:57;;;;;;;;;;;23.20;45.90;;;;;;1586978;73;1919;-57
2021/10/29 01:02:59;;;;;;;;;;;23.20;45.90;;;;;;1569084;74;821;-60
2021/10/29 01:05:04;;;;;;;;;;;23.20;45.90;;;;;;1569438;74;1179;-60
2021/10/29 01:07:04;;;;;;;;;;;23.20;45.90;;;;;;1572495;74;1538;-61
2021/10/29 01:09:06;;;;;;;;;;;23.20;45.80;;;;;;1569015;74;685;-59
2021/10/29 01:11:09;;;;;;;;;;;23.20;45.90;;;;;;1570490;74;678;-58
2021/10/29 01:13:11;;;;;;;;;;;23.30;45.90;;;;;;1569875;74;1669;-59
2021/10/29 01:15:13;;;;;;;;;;;23.20;45.70;;;;;;1583449;73;1078;-59
2021/10/29 01:17:15;;;;;;;;;;;23.30;45.80;;;;;;1569152;74;771;-57
2021/10/29 01:19:17;;;;;;;;;;;23.30;45.80;;;;;;1568474;74;764;-59
2021/10/29 01:21:19;;;;;;;;;;;23.30;45.80;;;;;;1568810;74;1926;-57
2021/10/29 01:23:21;;;;;;;;;;;23.20;45.70;;;;;;1569064;74;660;-59
2021/10/29 01:25:22;;;;;;;;;;;23.20;45.60;;;;;;1569448;74;1128;-57
2021/10/29 01:27:24;;;;;;;;;;;23.20;45.60;;;;;;1557986;74;780;-57
2021/10/29 01:29:26;;;;;;;;;;;23.20;45.60;;;;;;1568321;74;820;-59
2021/10/29 01:31:28;;;;;;;;;;;23.20;45.60;;;;;;1569413;74;716;-59
2021/10/29 01:33:30;;;;;;;;;;;23.20;45.60;;;;;;1569415;74;719;-59
2021/10/29 01:35:32;;;;;;;;;;;23.20;45.60;;;;;;1569088;74;1144;-60
2021/10/29 01:37:38;;;;;;;;;;;23.20;45.60;;;;;;1573276;74;799;-58
2021/10/29 01:39:38;;;;;;;;;;;23.20;45.60;;;;;;1569019;74;1927;-58
2021/10/29 01:41:40;;;;;;;;;;;23.20;45.50;;;;;;1568507;74;687;-58
2021/10/29 01:43:43;;;;;;;;;;;23.20;45.60;;;;;;1568760;74;726;-58
2021/10/29 01:45:45;;;;;;;;;;;23.20;45.60;;;;;;1569026;74;1140;-59
2021/10/29 01:47:47;;;;;;;;;;;23.20;45.50;;;;;;1563267;74;733;-59
2021/10/29 01:49:49;;;;;;;;;;;23.20;45.50;;;;;;1568864;74;783;-59
2021/10/29 01:51:51;;;;;;;;;;;23.20;45.60;;;;;;1569052;74;719;-59
2021/10/29 01:53:53;;;;;;;;;;;23.20;45.50;;;;;;1568722;74;774;-57
2021/10/29 01:55:55;;;;;;;;;;;23.20;45.50;;;;;;1569247;74;1132;-59
2021/10/29 01:57:56;;;;;;;;;;;23.20;45.40;;;;;;1568783;74;750;-59
2021/10/29 01:59:58;;;;;;;;;;;23.20;45.40;;;;;;1569121;74;1950;-58
2021/10/29 02:02:00;;;;;;;;;;;23.10;45.30;;;;;;1568844;74;779;-58
2021/10/29 02:04:02;;;;;;;;;;;23.10;45.40;;;;;;1569148;74;700;-60
2021/10/29 02:06:04;;;;;;;;;;;23.10;45.30;;;;;;1569263;74;1173;-60
2021/10/29 02:08:06;;;;;;;;;;;23.20;45.30;;;;;;1569214;74;769;-60
2021/10/29 02:10:08;;;;;;;;;;;23.20;45.30;;;;;;1573812;74;704;-59
2021/10/29 02:12:10;;;;;;;;;;;23.20;45.30;;;;;;1569247;74;723;-58
2021/10/29 02:14:12;;;;;;;;;;;23.10;45.40;;;;;;1577040;74;791;-60
2021/10/29 02:16:14;;;;;;;;;;;23.20;45.30;;;;;;1579410;74;1094;-58
2021/10/29 02:18:16;;;;;;;;;;;23.20;45.40;;;;;;1598728;71;226683;-77
2021/10/29 02:20:18;;;;;;;;;;;23.10;45.40;;;;;;1610647;73;1927;-76
2021/10/29 02:22:19;;;;;;;;;;;23.20;45.30;;;;;;1581632;74;780;-76
2021/10/29 02:24:21;;;;;;;;;;;23.10;45.40;;;;;;1564129;74;782;-76
2021/10/29 02:26:24;;;;;;;;;;;23.20;45.30;;;;;;1584664;74;704;-76
2021/10/29 02:28:25;;;;;;;;;;;23.20;45.20;;;;;;1587885;74;736;-76
2021/10/29 02:30:27;;;;;;;;;;;23.20;45.30;;;;;;1586921;74;1104;-77
2021/10/29 02:32:30;;;;;;;;;;;23.20;45.20;;;;;;1612818;70;219660;-59
2021/10/29 02:34:33;;;;;;;;;;;23.20;45.20;;;;;;1621626;72;1194;-60
2021/10/29 02:36:35;;;;;;;;;;;23.30;45.30;;;;;;1595775;73;723;-60
2021/10/29 02:38:36;;;;;;;;;;;23.20;45.20;;;;;;1600823;73;796;-61
2021/10/29 02:40:38;;;;;;;;;;;23.30;45.20;;;;;;1596086;73;1948;-61
2021/10/29 02:42:40;;;;;;;;;;;23.30;45.10;;;;;;1603341;73;680;-60
2021/10/29 02:44:42;;;;;;;;;;;23.30;44.90;;;;;;1598037;73;1116;-60
2021/10/29 02:46:44;;;;;;;;;;;23.30;44.90;;;;;;1537496;75;726;-59
2021/10/29 02:48:46;;;;;;;;;;;23.40;44.70;;;;;;1538781;75;732;-58
2021/10/29 02:50:48;;;;;;;;;;;23.50;44.60;;;;;;1530620;75;722;-56
2021/10/29 02:52:50;;;;;;;;;;;23.40;44.50;;;;;;1532975;75;738;-57
2021/10/29 02:54:52;;;;;;;;;;;23.40;44.60;;;;;;1539229;75;1103;-61
2021/10/29 02:56:54;;;;;;;;;;;23.30;44.60;;;;;;1533628;75;673;-60
2021/10/29 02:58:55;;;;;;;;;;;23.40;44.70;;;;;;1548903;75;679;-59
2021/10/29 03:00:58;;;;;;;;;;;23.30;44.70;;;;;;1544123;75;1919;-58
2021/10/29 03:02:59;;;;;;;;;;;23.30;44.80;;;;;;1570103;75;776;-57
2021/10/29 03:05:01;;;;;;;;;;;23.30;45.00;;;;;;1560485;75;1166;-60
2021/10/29 03:07:03;;;;;;;;;;;23.30;45.10;;;;;;1566191;75;578;-60
2021/10/29 03:09:05;;;;;;;;;;;23.30;45.10;;;;;;1562497;75;775;-60
2021/10/29 03:11:07;;;;;;;;;;;23.30;45.20;;;;;;1561045;75;684;-59
2021/10/29 03:13:09;;;;;;;;;;;23.20;45.20;;;;;;1570393;75;730;-60
2021/10/29 03:15:11;;;;;;;;;;;23.20;45.20;;;;;;1551960;75;1117;-60
2021/10/29 03:17:13;;;;;;;;;;;23.20;45.20;;;;;;1544728;76;626;-61
2021/10/29 03:19:15;;;;;;;;;;;23.20;45.20;;;;;;1599306;73;801;-58
2021/10/29 03:21:17;;;;;;;;;;;23.30;45.40;;;;;;1595585;73;1915;-60
2021/10/29 03:23:19;;;;;;;;;;;23.20;45.30;;;;;;1599761;73;776;-60
2021/10/29 03:25:21;;;;;;;;;;;23.20;45.40;;;;;;1568033;73;1110;-61
2021/10/29 03:27:23;;;;;;;;;;;23.20;45.40;;;;;;1563530;73;677;-58
2021/10/29 03:29:25;;;;;;;;;;;23.20;45.40;;;;;;1569110;73;787;-57
2021/10/29 03:31:27;;;;;;;;;;;23.30;45.50;;;;;;1565080;73;787;-59
2021/10/29 03:33:35;;;;;;;;;;;23.20;45.40;;;;;;1567742;73;725;-58
2021/10/29 03:35:32;;;;;;;;;;;23.20;45.50;;;;;;1572521;73;1607;-55
2021/10/29 03:42:23;;;;;;;;;;;23.30;45.70;;;;;;1568062;73;1887;-59
2021/10/29 03:46:30;;;;;;;;;;;23.30;45.60;;;;;;1581030;73;1262;-59
2021/10/29 03:48:42;;;;;;;;;;;23.30;45.60;;;;;;1602792;73;667;-59
2021/10/29 03:50:39;;;;;;;;;;;23.30;45.60;;;;;;1593058;73;1597;-55
2021/10/29 03:52:49;;;;;;;;;;;23.40;45.40;;;;;;1567790;73;1787;-55
2021/10/29 03:54:47;;;;;;;;;;;23.50;45.10;;;;;;1565606;73;1710;-59
2021/10/29 03:57:31;;;;;;;;;;;23.70;44.80;;;;;;1569921;73;1650;-59
2021/10/29 03:58:51;;;;;;;;;;;23.70;44.50;;;;;;1532054;75;1861;-58
2021/10/29 04:00:52;;;;;;;;;;;23.80;44.20;;;;;;1565259;73;1957;-60
2021/10/29 04:02:55;;;;;;;;;;;23.90;43.90;;;;;;1562950;73;691;-57
2021/10/29 04:04:57;;;;;;;;;;;24.00;43.70;;;;;;1571343;73;1180;-60
2021/10/29 04:06:59;;;;;;;;;;;24.00;43.50;;;;;;1562839;73;665;-57
2021/10/29 04:09:00;;;;;;;;;;;24.00;43.50;;;;;;1563025;73;789;-57
2021/10/29 04:11:03;;;;;;;;;;;23.90;43.50;;;;;;1571930;73;657;-60
2021/10/29 04:13:09;;;;;;;;;;;24.00;43.50;;;;;;1579551;73;716;-61
2021/10/29 04:15:08;;;;;;;;;;;24.00;43.50;;;;;;1593532;73;1576;-58
2021/10/29 04:17:10;;;;;;;;;;;24.00;43.40;;;;;;1596648;73;708;-59
2021/10/29 04:19:14;;;;;;;;;;;24.00;43.40;;;;;;1596652;73;750;-59
2021/10/29 04:21:15;;;;;;;;;;;24.00;43.30;;;;;;1597399;73;1917;-57
2021/10/29 04:23:17;;;;;;;;;;;24.10;43.40;;;;;;1604714;73;766;-58
2021/10/29 04:25:19;;;;;;;;;;;24.10;43.30;;;;;;1603456;73;1134;-59
2021/10/29 04:27:28;;;;;;;;;;;24.00;43.10;;;;;;1584013;73;818;-59
2021/10/29 04:29:35;;;;;;;;;;;24.00;43.20;;;;;;1584300;73;1214;-60
2021/10/29 04:31:32;;;;;;;;;;;24.00;43.20;;;;;;1588041;73;1646;-60
2021/10/29 04:33:34;;;;;;;;;;;24.00;43.10;;;;;;1576307;73;767;-56
2021/10/29 04:35:36;;;;;;;;;;;24.00;43.10;;;;;;1591594;73;1085;-58
2021/10/29 04:37:39;;;;;;;;;;;24.10;43.10;;;;;;1552666;75;811;-59
2021/10/29 04:39:41;;;;;;;;;;;24.10;43.10;;;;;;1584919;73;775;-61
2021/10/29 04:41:44;;;;;;;;;;;24.10;43.10;;;;;;1553989;75;1931;-57
2021/10/29 04:43:46;;;;;;;;;;;24.20;43.00;;;;;;1542262;76;792;-60
2021/10/29 04:45:48;;;;;;;;;;;24.10;42.90;;;;;;1543583;76;1118;-61
2021/10/29 04:47:50;;;;;;;;;;;24.10;42.90;;;;;;1535066;76;788;-58
2021/10/29 04:49:52;;;;;;;;;;;24.20;42.80;;;;;;1543572;76;809;-58
2021/10/29 04:51:53;;;;;;;;;;;24.20;42.80;;;;;;1544004;76;752;-58
2021/10/29 04:53:56;;;;;;;;;;;24.10;42.80;;;;;;1536827;76;773;-57
2021/10/29 04:55:58;;;;;;;;;;;24.20;42.80;;;;;;1572383;73;1133;-58
2021/10/29 04:57:59;;;;;;;;;;;24.20;42.80;;;;;;1574562;73;686;-57
2021/10/29 05:00:04;;;;;;;;;;;24.20;42.80;;;;;;1548625;75;774;-60
2021/10/29 05:02:05;;;;;;;;;;;24.10;42.80;;;;;;1543505;75;1916;-58
2021/10/29 05:04:07;;;;;;;;;;;24.10;42.80;;;;;;1545466;75;939;-57
2021/10/29 05:06:09;;;;;;;;;;;24.00;42.80;;;;;;1540972;75;1154;-60
2021/10/29 05:08:11;;;;;;;;;;;24.00;42.90;;;;;;1538844;75;683;-60
2021/10/29 05:10:13;;;;;;;;;;;24.10;42.90;;;;;;1568762;75;677;-59
2021/10/29 05:12:15;;;;;;;;;;;24.00;42.80;;;;;;1571073;75;681;-57
2021/10/29 05:14:16;;;;;;;;;;;24.10;43.00;;;;;;1520204;75;695;-56
2021/10/29 05:16:18;;;;;;;;;;;24.00;43.00;;;;;;1541733;75;1146;-61
2021/10/29 05:18:21;;;;;;;;;;;24.00;43.10;;;;;;1546749;75;752;-60
2021/10/29 05:20:23;;;;;;;;;;;24.00;43.40;;;;;;1542019;75;755;-57
2021/10/29 05:22:25;;;;;;;;;;;23.80;43.60;;;;;;1549048;75;1940;-59
2021/10/29 05:24:27;;;;;;;;;;;23.90;43.60;;;;;;1543164;75;719;-59
2021/10/29 05:26:29;;;;;;;;;;;24.00;43.20;;;;;;1533915;75;1150;-59
2021/10/29 05:28:30;;;;;;;;;;;24.00;43.10;;;;;;1527700;75;924;-60
2021/10/29 05:30:32;;;;;;;;;;;24.00;43.10;;;;;;1526567;75;774;-59
2021/10/29 05:32:34;;;;;;;;;;;24.00;42.90;;;;;;1535326;75;804;-58
2021/10/29 05:34:36;;;;;;;;;;;23.90;43.10;;;;;;1540647;75;1144;-59
2021/10/29 05:36:38;;;;;;;;;;;23.90;43.40;;;;;;1532308;75;822;-57
2021/10/29 05:38:40;;;;;;;;;;;23.90;43.60;;;;;;1527508;75;783;-57
2021/10/29 05:40:42;;;;;;;;;;;23.90;43.80;;;;;;1523172;75;765;-56
2021/10/29 05:42:44;;;;;;;;;;;23.80;43.70;;;;;;1523616;75;1953;-60
2021/10/29 05:44:46;;;;;;;;;;;23.90;43.60;;;;;;1532737;75;1059;-56
2021/10/29 05:46:48;;;;;;;;;;;23.90;43.60;;;;;;1540081;75;692;-57
2021/10/29 05:48:50;;;;;;;;;;;24.00;43.50;;;;;;1550803;75;664;-59
2021/10/29 05:50:54;;;;;;;;;;;23.90;43.40;;;;;;1551642;75;779;-59
2021/10/29 05:52:56;;;;;;;;;;;23.90;43.40;;;;;;1536708;76;819;-59
2021/10/29 05:55:13;;;;;;;;;;;24.00;43.30;;;;;;1536797;76;1159;-61
2021/10/29 05:57:05;;;;;;;;;;;23.90;43.30;;;;;;1543322;75;1751;-60
2021/10/29 05:59:07;;;;;;;;;;;23.90;43.40;;;;;;1547847;76;787;-58
2021/10/29 06:01:09;;;;;;;;;;;23.90;43.30;;;;;;1604833;73;1952;-60
2021/10/29 06:03:11;;;;;;;;;;;23.90;43.30;;;;;;1590009;73;772;-58
2021/10/29 06:05:13;;;;;;;;;;;23.80;43.30;;;;;;1603291;73;1185;-59
2021/10/29 06:07:15;;;;;;;;;;;23.90;43.40;;;;;;1601518;73;738;-60
2021/10/29 06:09:17;;;;;;;;;;;23.80;43.30;;;;;;1586780;73;710;-60
2021/10/29 06:11:19;;;;;;;;;;;23.80;43.30;;;;;;1604952;73;766;-59
2021/10/29 06:13:21;;;;;;;;;;;23.80;43.30;;;;;;1581006;73;730;-61
2021/10/29 06:15:23;;;;;;;;;;;23.70;43.30;;;;;;1602185;73;1142;-60
2021/10/29 06:17:27;;;;;;;;;;;23.80;43.30;;;;;;1601270;73;667;-61
2021/10/29 06:19:29;;;;;;;;;;;23.80;43.30;;;;;;1602388;73;1968;-61
2021/10/29 06:21:39;;;;;;;;;;;23.70;43.20;;;;;;1597126;73;1947;-59
2021/10/29 06:23:57;;;;;;;;;;;23.70;43.10;;;;;;1601062;73;1641;-60
2021/10/29 06:25:46;;;;;;;;;;;23.70;42.10;;;;;;1598849;73;1659;-60
2021/10/29 06:30:09;;;;;;;;;;;23.60;41.00;;;;;;1582141;73;1655;-59
2021/10/29 06:32:10;;;;;;;;;;;23.50;40.60;;;;;;1586705;73;639;-60
2021/10/29 06:34:13;;;;;;;;;;;23.50;40.40;;;;;;1580198;73;779;-60
2021/10/29 06:36:15;;;;;;;;;;;23.50;40.30;;;;;;1575062;73;1102;-60
2021/10/29 06:38:17;;;;;;;;;;;23.40;40.00;;;;;;1589585;73;768;-59
2021/10/29 06:40:19;;;;;;;;;;;23.40;39.90;;;;;;1591258;73;698;-60
2021/10/29 06:42:26;;;;;;;;;;;23.40;39.70;;;;;;1575432;73;1910;-60
2021/10/29 07:05:00;;;;;;;;;;;23.10;39.20;;;;;;1580569;73;854;-57
2021/10/29 07:41:38;;;;;;;;;;;22.90;38.40;;;;;;1588109;73;1925;-58
2021/10/29 07:44:01;;;;;;;;;;;23.00;38.30;;;;;;1585228;73;756;-58
2021/10/29 07:46:02;;;;;;;;;;;23.00;38.20;;;;;;1581290;73;1651;-58
2021/10/29 07:48:05;;;;;;;;;;;22.90;38.20;;;;;;1578422;73;667;-58
2021/10/29 07:50:07;;;;;;;;;;;22.90;38.10;;;;;;1581583;73;717;-59
2021/10/29 07:52:09;;;;;;;;;;;22.90;38.00;;;;;;1591662;72;785;-58
2021/10/29 07:54:11;;;;;;;;;;;23.00;37.90;;;;;;1579107;73;1067;-58
2021/10/29 07:56:13;;;;;;;;;;;22.90;38.00;;;;;;1580730;73;1173;-58
2021/10/29 07:58:15;;;;;;;;;;;22.90;37.90;;;;;;1583089;73;658;-57
2021/10/29 08:00:20;;;;;;;;;;;22.90;38.10;;;;;;1582518;73;779;-58
2021/10/29 08:02:23;;;;;;;;;;;22.90;37.80;;;;;;1571540;73;1907;-58
2021/10/29 08:04:25;;;;;;;;;;;22.90;37.90;;;;;;1583684;73;765;-58
2021/10/29 08:06:27;;;;;;;;;;;22.90;37.70;;;;;;1584929;73;1103;-57
2021/10/29 08:08:29;;;;;;;;;;;22.90;37.60;;;;;;1572831;73;770;-58
2021/10/29 08:10:31;;;;;;;;;;;22.90;37.50;;;;;;1576944;73;729;-58
2021/10/29 08:12:33;;;;;;;;;;;22.90;37.40;;;;;;1579778;73;737;-57
2021/10/29 08:14:35;;;;;;;;;;;22.90;37.40;;;;;;1584121;73;1118;-58
2021/10/29 08:16:37;;;;;;;;;;;22.90;37.40;;;;;;1585139;73;727;-57
2021/10/29 08:18:44;;;;;;;;;;;22.90;37.30;;;;;;1544783;70;228408;-78
2021/10/29 08:20:45;;;;;;;;;;;22.90;37.50;;;;;;1534803;76;1695;-78
2021/10/29 08:22:50;;;;;;;;;;;22.90;37.50;;;;;;1537654;76;1948;-79
2021/10/29 08:24:51;;;;;;;;;;;22.90;37.60;;;;;;1541447;75;1627;-78
2021/10/29 08:26:53;;;;;;;;;;;22.90;37.50;;;;;;1542613;75;1195;-78
2021/10/29 08:28:55;;;;;;;;;;;22.90;37.40;;;;;;1559804;75;717;-78
2021/10/29 08:30:57;;;;;;;;;;;23.00;37.60;;;;;;1553079;75;781;-78
2021/10/29 08:32:58;;;;;;;;;;;23.00;37.30;;;;;;1564746;75;747;-78
2021/10/29 08:35:01;;;;;;;;;;;23.00;37.30;;;;;;1557927;75;726;-78
2021/10/29 08:37:03;;;;;;;;;;;22.90;37.10;;;;;;1555007;75;1121;-77
2021/10/29 08:39:07;;;;;;;;;;;23.00;37.20;;;;;;1560807;75;746;-79
2021/10/29 08:41:08;;;;;;;;;;;23.00;37.10;;;;;;1558744;75;715;-78
2021/10/29 08:43:11;;;;;;;;;;;23.00;37.20;;;;;;1567304;75;1941;-79
2021/10/29 08:45:13;;;;;;;;;;;23.00;37.10;;;;;;1556162;75;571;-79
2021/10/29 08:47:20;;;;;;;;;;;23.00;37.00;;;;;;1557139;75;1171;-78
2021/10/29 08:49:18;;;;;;;;;;;23.00;37.00;;;;;;1559877;75;1714;-77
2021/10/29 08:51:21;;;;;;;;;;;23.00;36.80;;;;;;1565932;75;778;-78
2021/10/29 08:53:23;;;;;;;;;;;22.90;36.70;;;;;;1567968;75;785;-78
2021/10/29 08:55:29;;;;;;;;;;;23.00;36.80;;;;;;1563787;75;764;-78
2021/10/29 08:57:31;;;;;;;;;;;22.90;37.00;;;;;;1562346;75;1157;-79
2021/10/29 08:59:34;;;;;;;;;;;22.90;37.30;;;;;;1555137;75;765;-77
2021/10/29 09:01:50;;;;;;;;;;;22.90;37.50;;;;;;1553196;75;666;-80
2021/10/29 09:03:59;;;;;;;;;;;22.90;37.60;;;;;;1551354;75;1901;-79
2021/10/29 09:06:06;;;;;;;;;;;23.10;37.80;;;;;;1555170;75;1197;-79
2021/10/29 09:08:08;;;;;;;;;;;22.90;37.70;;;;;;1522663;77;985;-78
2021/10/29 09:31:28;;;;;;;;;;;22.90;38.40;;;;;;1484475;79;1640;-78
2021/10/29 09:33:31;;;;;;;;;;;22.80;38.20;;;;;;1528324;77;695;-79
2021/10/29 09:35:36;;;;;;;;;;;22.80;38.20;;;;;;1481901;78;1008;-79
2021/10/29 09:37:58;;;;;;;;;;;22.80;38.10;;;;;;1505164;77;1118;-79
2021/10/29 09:39:59;;;;;;;;;;;22.80;38.00;;;;;;1501020;77;714;-79
2021/10/29 09:42:05;;;;;;;;;;;22.70;37.80;;;;;;1500457;77;742;-79
2021/10/29 09:44:12;;;;;;;;;;;22.70;37.60;;;;;;1500660;77;1909;-79
2021/10/29 09:46:14;;;;;;;;;;;22.70;37.80;;;;;;1504616;77;1206;-79
2021/10/29 09:48:20;;;;;;;;;;;22.70;37.80;;;;;;1489416;78;1257;-79
2021/10/29 09:50:27;;;;;;;;;;;22.80;37.80;;;;;;1513311;77;1169;-79
2021/10/29 09:54:42;;;;;;;;;;;22.70;37.80;;;;;;1514979;77;820;-79
2021/10/29 09:56:53;;;;;;;;;;;22.70;38.00;;;;;;1499325;77;1121;-79
2021/10/29 09:58:56;;;;;;;;;;;22.80;37.90;;;;;;1512797;77;702;-78
2021/10/29 10:00:59;;;;;;;;;;;22.70;38.00;;;;;;1513613;77;689;-77
2021/10/29 10:03:01;;;;;;;;;;;22.60;38.00;;;;;;1514341;77;1910;-78
2021/10/29 10:05:05;;;;;;;;;;;22.70;38.00;;;;;;1513864;77;694;-78
2021/10/29 10:07:07;;;;;;;;;;;22.70;38.00;;;;;;1513397;77;1139;-77
2021/10/29 10:09:09;;;;;;;;;;;22.70;38.00;;;;;;1514883;77;789;-79
2021/10/29 10:11:12;;;;;;;;;;;22.70;38.10;;;;;;1501944;77;702;-80
2021/10/29 10:13:14;;;;;;;;;;;22.70;38.10;;;;;;1514314;77;755;-80
2021/10/29 10:15:17;;;;;;;;;;;22.70;38.10;;;;;;1504039;77;680;-78
2021/10/29 10:17:19;;;;;;;;;;;22.70;38.10;;;;;;1514960;77;1069;-79
2021/10/29 10:19:21;;;;;;;;;;;22.70;38.10;;;;;;1514665;77;766;-79
2021/10/29 10:21:25;;;;;;;;;;;22.70;37.90;;;;;;1513979;77;757;-79
2021/10/29 10:23:30;;;;;;;;;;;22.70;38.00;;;;;;1512989;77;1923;-79
2021/10/29 10:25:41;;;;;;;;;;;22.70;38.00;;;;;;1512549;77;1535;-78
2021/10/29 10:28:05;;;;;;;;;;;22.80;38.10;;;;;;1513595;77;1147;-78
2021/10/29 10:29:58;;;;;;;;;;;22.60;38.00;;;;;;1505263;77;985;-79
2021/10/29 10:43:40;;;;;;;;;;;22.70;38.40;;;;;;1504238;77;1934;-79
2021/10/29 10:45:49;;;;;;;;;;;22.70;37.80;;;;;;1512930;77;1718;-79
2021/10/29 10:47:52;;;;;;;;;;;22.70;37.70;;;;;;1514319;77;1164;-78
2021/10/29 10:49:58;;;;;;;;;;;22.70;37.60;;;;;;1519144;77;1103;-78
2021/10/29 10:52:18;;;;;;;;;;;22.70;37.70;;;;;;1513722;77;1834;-78
2021/10/29 10:57:05;;;;;;;;;;;22.70;38.00;;;;;;1516641;77;1131;-78
2021/10/29 10:59:29;;;;;;;;;;;22.60;38.00;;;;;;1513419;77;1131;-78
2021/10/29 11:01:56;;;;;;;;;;;22.70;38.00;;;;;;1512619;77;1122;-78
2021/10/29 11:04:01;;;;;;;;;;;22.60;37.10;;;;;;1526907;77;1921;-78
2021/10/29 11:10:33;;;;;;;;;;;22.60;36.40;;;;;;1514097;77;808;-77
2021/10/29 11:12:36;;;;;;;;;;;22.60;36.30;;;;;;1513069;77;717;-77
2021/10/29 11:14:38;;;;;;;;;;;22.60;36.50;;;;;;1487740;77;1377;-78
2021/10/29 11:16:42;;;;;;;;;;;22.60;36.70;;;;;;1513792;77;1120;-78
2021/10/29 11:18:54;;;;;;;;;;;22.60;36.80;;;;;;1509946;77;764;-78
2021/10/29 11:20:59;;;;;;;;;;;22.70;36.80;;;;;;1517424;77;703;-78
2021/10/29 11:23:08;;;;;;;;;;;22.60;36.40;;;;;;1499778;77;1929;-77
2021/10/29 11:25:12;;;;;;;;;;;22.70;36.00;;;;;;1512628;77;677;-78
2021/10/29 11:27:15;;;;;;;;;;;22.60;35.30;;;;;;1513175;77;1173;-78
2021/10/29 11:29:17;;;;;;;;;;;22.60;35.30;;;;;;1512493;77;773;-78
2021/10/29 11:31:19;;;;;;;;;;;22.60;35.20;;;;;;1529361;77;730;-78
2021/10/29 11:33:21;;;;;;;;;;;22.60;35.50;;;;;;1512140;77;668;-79
2021/10/29 11:35:23;;;;;;;;;;;22.50;35.40;;;;;;1503936;77;777;-78
2021/10/29 11:37:25;;;;;;;;;;;22.50;34.80;;;;;;1505898;77;1116;-78
2021/10/29 11:39:27;;;;;;;;;;;22.50;34.80;;;;;;1511862;77;677;-78
2021/10/29 11:41:31;;;;;;;;;;;22.40;34.70;;;;;;1513224;77;725;-78
2021/10/29 11:43:33;;;;;;;;;;;22.40;34.60;;;;;;1514074;77;1910;-78
2021/10/29 11:45:36;;;;;;;;;;;22.40;34.60;;;;;;1514701;77;751;-78
2021/10/29 11:47:38;;;;;;;;;;;22.40;34.80;;;;;;1523327;77;1148;-78
2021/10/29 11:49:40;;;;;;;;;;;22.50;35.10;;;;;;1521805;77;717;-78
2021/10/29 11:51:42;;;;;;;;;;;22.40;35.00;;;;;;1516363;77;746;-80
2021/10/29 11:53:48;;;;;;;;;;;22.50;35.30;;;;;;1525565;77;699;-78
2021/10/29 11:55:59;;;;;;;;;;;22.40;35.30;;;;;;1517381;77;1053;-78
2021/10/29 11:58:02;;;;;;;;;;;22.40;35.30;;;;;;1510391;77;1705;-78
2021/10/29 12:00:24;;;;;;;;;;;22.40;35.50;;;;;;1512929;77;1106;-78
2021/10/29 12:09:27;;;;;;;;;;;22.40;35.30;;;;;;1525353;77;721;-77
2021/10/29 12:11:31;;;;;;;;;;;22.50;35.60;;;;;;1522126;77;785;-77
2021/10/29 12:13:43;;;;;;;;;;;22.50;35.50;;;;;;1520845;77;939;-77
2021/10/29 12:15:45;;;;;;;;;;;22.40;35.20;;;;;;1519469;77;782;-76
2021/10/29 12:17:53;;;;;;;;;;;22.40;34.90;;;;;;1511079;77;1082;-78
2021/10/29 12:19:57;;;;;;;;;;;22.30;34.70;;;;;;1514648;77;1638;-77
2021/10/29 12:22:06;;;;;;;;;;;22.30;34.50;;;;;;1514263;77;1124;-78
2021/10/29 12:24:06;;;;;;;;;;;22.20;34.60;;;;;;1511112;77;1937;-77
2021/10/29 12:26:08;;;;;;;;;;;22.30;35.00;;;;;;1502797;77;1204;-76
2021/10/29 12:30:26;;;;;;;;;;;22.20;35.20;;;;;;1512586;77;1189;-76
2021/10/29 13:01:59;;;;;;;;;;;22.50;37.10;;;;;;1557433;75;1621;-59
2021/10/29 13:04:09;;;;;;;;;;;22.50;37.30;;;;;;1562415;75;1899;-58
2021/10/29 13:06:15;;;;;;;;;;;22.60;37.40;;;;;;1560723;75;1120;-58
2021/10/29 13:08:19;;;;;;;;;;;22.60;37.40;;;;;;1559031;76;828;-58
2021/10/29 13:10:20;;;;;;;;;;;22.60;37.40;;;;;;1547620;75;1824;-57
2021/10/29 13:12:29;;;;;;;;;;;22.70;37.50;;;;;;1563109;75;740;-57
2021/10/29 13:16:35;;;;;;;;;;;22.70;37.30;;;;;;1541147;75;788;-56
2021/10/29 13:21:05;;;;;;;;;;;22.80;37.30;;;;;;1548312;74;869;-60
2021/10/29 13:35:06;;;;;;;;;;;22.90;37.30;;;;;;1482477;78;1061;-61
2021/10/29 13:36:27;;;;;;;;;;;23.00;37.30;;;;;;1497668;74;1482;-60
2021/10/29 13:52:20;;;;;;;;;;;23.10;37.30;;;;;;1551473;74;1584;-58
2021/10/29 13:58:49;;;;;;;;;;;23.00;37.10;;;;;;1557151;75;807;-59
2021/10/29 14:17:07;;;;;;;;;;;23.10;37.30;;;;;;1555948;74;1665;-59
2021/10/29 14:28:28;;;;;;;;;;;23.10;37.30;;;;;;1555382;74;1671;-54
2021/10/29 14:30:46;;;;;;;;;;;23.20;37.30;;;;;;1590768;73;1073;-54
2021/10/29 14:32:27;;;;;;;;;;;23.10;37.50;;;;;;1579363;73;1360;-54
2021/10/29 14:34:33;;;;;;;;;;;23.10;37.40;;;;;;1581736;74;1586;-56
2021/10/29 14:36:41;;;;;;;;;;;23.10;37.50;;;;;;1593273;74;1663;-55
2021/10/29 14:38:40;;;;;;;;;;;23.10;37.40;;;;;;1596555;73;1901;-53
2021/10/29 14:40:55;;;;;;;;;;;23.10;37.40;;;;;;1590412;73;1716;-56
2021/10/29 14:43:04;;;;;;;;;;;23.10;37.40;;;;;;1599445;73;1556;-56
2021/10/29 15:16:44;;;;;;;;;;;22.80;36.90;;;;;;1589628;74;1613;-54
2021/10/29 15:25:38;;;;;;;;;;;22.80;36.30;;;;;;1584045;74;1840;-56
2021/10/29 15:29:52;;;;;;;;;;;22.60;36.30;;;;;;1593082;74;849;-55
2021/10/29 15:43:19;;;;;;;;;;;22.50;36.00;;;;;;1579156;74;1644;-55
2021/10/29 15:45:22;;;;;;;;;;;22.50;36.00;;;;;;1576267;74;1926;-55
2021/10/29 15:47:39;;;;;;;;;;;22.50;36.10;;;;;;1587635;73;1554;-53
2021/10/29 15:49:38;;;;;;;;;;;22.40;36.10;;;;;;1573236;74;1552;-54
2021/10/29 15:51:40;;;;;;;;;;;22.40;36.10;;;;;;1584931;74;789;-53
2021/10/29 15:53:43;;;;;;;;;;;22.50;36.30;;;;;;1583954;74;583;-54
2021/10/29 15:55:49;;;;;;;;;;;22.40;36.30;;;;;;1586648;74;1080;-55
2021/10/29 15:58:04;;;;;;;;;;;22.50;36.50;;;;;;1586223;74;1590;-55
2021/10/29 16:00:05;;;;;;;;;;;22.50;36.50;;;;;;1588799;74;1588;-56
2021/10/29 16:02:18;;;;;;;;;;;22.50;36.50;;;;;;1585849;73;1501;-52
2021/10/29 16:18:07;;;;;;;;;;;22.50;36.70;;;;;;1589313;74;1622;-55
2021/10/29 16:20:09;;;;;;;;;;;22.50;36.70;;;;;;1584012;74;763;-55
2021/10/29 16:22:17;;;;;;;;;;;22.40;36.50;;;;;;1576466;74;725;-55
2021/10/29 16:24:15;;;;;;;;;;;22.50;36.60;;;;;;1578184;73;1925;-55
2021/10/29 16:26:19;;;;;;;;;;;22.50;36.60;;;;;;1574275;74;1090;-55
2021/10/29 16:28:26;;;;;;;;;;;22.50;36.60;;;;;;1589737;74;1603;-54
2021/10/29 16:30:26;;;;;;;;;;;22.50;36.50;;;;;;1586944;74;1559;-55
2021/10/29 16:32:52;;;;;;;;;;;22.40;36.20;;;;;;1584013;74;752;-55
2021/10/29 16:34:32;;;;;;;;;;;22.40;36.10;;;;;;1577672;74;1414;-53
2021/10/29 16:36:34;;;;;;;;;;;22.40;36.10;;;;;;1586324;73;747;-55
2021/10/29 16:38:36;;;;;;;;;;;22.40;36.00;;;;;;1584762;74;706;-54
2021/10/29 16:40:38;;;;;;;;;;;22.40;35.90;;;;;;1584999;74;693;-55
2021/10/29 16:42:41;;;;;;;;;;;22.40;35.90;;;;;;1576403;74;1042;-55
2021/10/29 16:44:46;;;;;;;;;;;22.40;36.00;;;;;;1583035;74;1914;-52